Astoria, Oregon
Current Conditions -  °F | °C
As of 12:55 PM on Wednesday 17 Dec 2014 (Local Time) from KAST Reporting Station
Overcast Overcast  
Wind Chill: 50°   Ceiling: 4500
Heat Index: 50°   Visibility: 10mi
Dew Point: 40°   Wind: 5mph
Humidity: 68%   Direction: 70°ENE
Pressure: 29.81"   Gusts: NA
Location:  46.19°N, 123.83°W
Report Text: KAST 172055Z AUTO 07004KT 10SM OVC045 10/04 A2981 RMK AO2 RAB32E41 SLP094 P0000 60000 T01000044 50003
Loading
Personal Weather Stations






























Interactive Weather Map New forecast layout! Learn more

10-Day Weather Forecast

Advertisements
Track Severe Weather on mobile